TimeEST,TemperatureF,Dew PointF,Humidity,Sea Level PressureIn,VisibilityMPH,Wind Direction,Wind SpeedMPH,Gust SpeedMPH,PrecipitationIn,Events,Conditions,WindDirDegrees,DateUTC
12:45 AM,42.8,39.2,87,29.90,10.0,West,5.8,-,N/A,,Overcast,270,2013-02-05 05:45:00
12:53 AM,43.0,39.0,86,29.91,10.0,WSW,6.9,-,N/A,,Overcast,250,2013-02-05 05:53:00
1:53 AM,42.1,37.9,85,29.90,10.0,West,8.1,-,N/A,,Overcast,260,2013-02-05 06:53:00
2:53 AM,42.1,37.9,85,29.90,10.0,WSW,4.6,-,N/A,,Overcast,250,2013-02-05 07:53:00
3:48 AM,41.0,37.4,87,29.89,10.0,West,3.5,-,0.01,,Overcast,260,2013-02-05 08:48:00
3:53 AM,41.0,37.9,89,29.89,10.0,WSW,3.5,-,0.01,,Overcast,250,2013-02-05 08:53:00
4:24 AM,41.0,37.4,87,29.89,8.0,WSW,5.8,-,N/A,,Overcast,250,2013-02-05 09:24:00
4:53 AM,41.0,37.9,89,29.91,7.0,West,8.1,-,N/A,,Overcast,270,2013-02-05 09:53:00
5:45 AM,35.6,33.8,93,29.91,2.5,North,6.9,-,0.00,,Overcast,350,2013-02-05 10:45:00
5:53 AM,35.1,33.1,92,29.92,3.0,NNW,3.5,-,0.00,,Overcast,330,2013-02-05 10:53:00
6:53 AM,35.1,30.9,85,29.93,6.0,NNW,5.8,-,N/A,,Overcast,330,2013-02-05 11:53:00
7:13 AM,33.8,28.4,81,29.93,6.0,NNW,8.1,-,N/A,,Haze,340,2013-02-05 12:13:00
7:53 AM,34.0,28.9,82,29.96,6.0,NNW,5.8,-,N/A,,Haze,340,2013-02-05 12:53:00
8:53 AM,34.0,28.0,79,29.99,5.0,North,5.8,-,N/A,,Haze,350,2013-02-05 13:53:00
9:44 AM,35.6,28.4,75,29.97,5.0,Calm,Calm,-,N/A,,Haze,0,2013-02-05 14:44:00
9:53 AM,35.1,30.0,82,29.98,5.0,Calm,Calm,-,N/A,,Haze,0,2013-02-05 14:53:00
10:53 AM,37.4,32.0,81,29.98,5.0,South,5.8,-,N/A,,Haze,190,2013-02-05 15:53:00
11:16 AM,39.2,32.0,75,29.98,7.0,West,9.2,-,N/A,,Mostly Cloudy,260,2013-02-05 16:16:00
11:31 AM,39.2,32.0,75,29.99,8.0,WSW,9.2,-,N/A,,Scattered Clouds,250,2013-02-05 16:31:00
11:53 AM,39.9,33.1,77,29.99,7.0,West,8.1,-,N/A,,Partly Cloudy,260,2013-02-05 16:53:00
12:53 PM,43.0,33.1,68,29.95,9.0,SSW,8.1,-,N/A,,Mostly Cloudy,200,2013-02-05 17:53:00
1:53 PM,44.1,33.1,65,29.93,10.0,SSW,8.1,18.4,N/A,,Overcast,210,2013-02-05 18:53:00
2:53 PM,46.0,32.0,58,29.91,10.0,WSW,6.9,-,N/A,,Mostly Cloudy,240,2013-02-05 19:53:00
3:53 PM,50.0,33.1,52,29.90,10.0,WSW,11.5,-,N/A,,Mostly Cloudy,240,2013-02-05 20:53:00
4:53 PM,50.0,30.9,48,29.89,10.0,SSW,9.2,-,N/A,,Clear,200,2013-02-05 21:53:00
5:53 PM,48.9,30.9,50,29.91,10.0,WSW,6.9,-,N/A,,Clear,240,2013-02-05 22:53:00
6:53 PM,46.9,32.0,56,29.94,10.0,West,8.1,-,N/A,,Overcast,270,2013-02-05 23:53:00
7:53 PM,43.0,30.9,62,29.96,10.0,West,5.8,-,N/A,,Clear,270,2013-02-06 00:53:00
8:53 PM,43.0,32.0,65,29.99,10.0,West,9.2,-,N/A,,Clear,280,2013-02-06 01:53:00
9:53 PM,43.0,33.1,68,30.02,10.0,NW,11.5,-,N/A,,Clear,310,2013-02-06 02:53:00
10:53 PM,41.0,32.0,70,30.05,10.0,NW,4.6,-,N/A,,Clear,320,2013-02-06 03:53:00
11:53 PM,39.9,32.0,73,30.06,9.0,NNE,3.5,-,N/A,,Clear,20,2013-02-06 04:53:00